Monroe City, Missouri
Current Conditions -  °F | °C
As of 6:54 AM on Wednesday 26 Nov 2014 (Local Time) from KUIN Reporting Station
Overcast Overcast  
Wind Chill: -6°   Ceiling: 8000
Heat Index: -2°   Visibility: 10mi
Dew Point: -4°   Wind: 9mph
Humidity: 82%   Direction: 130°SE
Pressure: 30.01"   Gusts: NA
Location:  39.65°N, 91.73°W
Report Text: KUIN 261254Z AUTO 13008KT 10SM OVC080 M02/M04 A3001 RMK AO2 SLP169 T10171044
Loading
Personal Weather Stations






























Interactive Weather Map New forecast layout! Learn more

10-Day Weather Forecast

Advertisements
Track Severe Weather on mobile